createdAt,value
2018-06-13T00:00:09.938Z,57.84
2018-06-13T00:02:37.585Z,57.86
2018-06-13T00:05:05.291Z,57.71
2018-06-13T00:07:33.314Z,57.63
2018-06-13T00:10:00.929Z,58.10
2018-06-13T00:12:28.650Z,58.18
2018-06-13T00:14:56.555Z,57.85
2018-06-13T00:17:24.158Z,57.64
2018-06-13T00:19:51.769Z,58.10
2018-06-13T00:22:19.572Z,58.35
2018-06-13T00:24:47.146Z,57.98
2018-06-13T00:27:14.773Z,58.15
2018-06-13T00:29:43.070Z,57.81
2018-06-13T00:32:10.683Z,58.46
2018-06-13T00:34:38.317Z,58.23
2018-06-13T00:37:06.184Z,58.13
2018-06-13T00:39:33.794Z,58.32
2018-06-13T00:42:01.404Z,58.19
2018-06-13T00:44:29.389Z,58.15
2018-06-13T00:46:57.144Z,58.42
2018-06-13T00:49:24.769Z,58.48
2018-06-13T00:51:52.818Z,58.43
2018-06-13T00:54:20.416Z,58.73
2018-06-13T00:56:48.015Z,58.14
2018-06-13T00:59:16.025Z,59.15
2018-06-13T01:01:43.604Z,58.80
2018-06-13T01:04:11.226Z,58.49
2018-06-13T01:06:39.428Z,58.37
2018-06-13T01:09:07.921Z,58.86
2018-06-13T01:11:35.723Z,58.88
2018-06-13T01:14:03.604Z,58.78
2018-06-13T01:16:31.269Z,58.53
2018-06-13T01:18:58.947Z,58.73
2018-06-13T01:21:26.868Z,58.90
2018-06-13T01:23:54.457Z,58.96
2018-06-13T01:26:22.073Z,58.76
2018-06-13T01:28:49.877Z,59.05
2018-06-13T01:31:17.642Z,58.81
2018-06-13T01:33:45.296Z,58.83
2018-06-13T01:36:13.225Z,58.88
2018-06-13T01:38:41.002Z,59.08
2018-06-13T01:41:08.614Z,59.01
2018-06-13T01:43:36.423Z,58.99
2018-06-13T01:46:04.078Z,59.10
2018-06-13T01:48:31.649Z,59.13
2018-06-13T01:50:59.450Z,58.83
2018-06-13T01:53:28.605Z,59.01
2018-06-13T01:55:56.266Z,59.08
2018-06-13T01:58:24.558Z,58.77
2018-06-13T02:00:52.164Z,59.04
2018-06-13T02:03:19.807Z,59.12
2018-06-13T02:05:47.661Z,59.12
2018-06-13T02:08:15.353Z,59.18
2018-06-13T02:10:42.928Z,59.36
2018-06-13T02:13:10.914Z,58.82
2018-06-13T02:15:38.598Z,59.06
2018-06-13T02:18:06.268Z,59.09
2018-06-13T02:20:34.312Z,59.21
2018-06-13T02:23:01.935Z,59.05
2018-06-13T02:25:29.564Z,59.21
2018-06-13T02:27:57.410Z,59.26
2018-06-13T02:30:25.035Z,58.92
2018-06-13T02:32:53.187Z,59.22
2018-06-13T02:35:21.266Z,59.18
2018-06-13T02:37:48.889Z,59.18
2018-06-13T02:40:16.593Z,59.44
2018-06-13T02:42:45.061Z,59.46
2018-06-13T02:45:12.688Z,59.27
2018-06-13T02:47:40.377Z,59.11
2018-06-13T02:50:08.363Z,59.16
2018-06-13T02:52:35.961Z,59.50
2018-06-13T02:55:03.678Z,59.40
2018-06-13T02:57:31.638Z,59.42
2018-06-13T02:59:59.271Z,59.43
2018-06-13T03:02:26.909Z,59.43
2018-06-13T03:04:54.820Z,59.49
2018-06-13T03:07:22.377Z,59.41
2018-06-13T03:09:49.982Z,59.54
2018-06-13T03:12:17.930Z,59.21
2018-06-13T03:14:45.538Z,59.55
2018-06-13T03:17:13.240Z,59.46
2018-06-13T03:19:41.106Z,59.21
2018-06-13T03:22:08.734Z,59.66
2018-06-13T03:24:36.396Z,59.48
2018-06-13T03:27:04.247Z,59.70
2018-06-13T03:29:31.856Z,59.56
2018-06-13T03:31:59.456Z,59.67
2018-06-13T03:34:27.698Z,59.73
2018-06-13T03:36:55.376Z,59.48
2018-06-13T03:39:23.035Z,59.71
2018-06-13T03:41:50.812Z,59.80
2018-06-13T03:44:18.442Z,59.57
2018-06-13T03:46:46.069Z,59.61
2018-06-13T03:49:14.070Z,59.53
2018-06-13T03:51:41.661Z,59.54
2018-06-13T03:54:09.233Z,59.21
2018-06-13T03:56:37.292Z,59.05
2018-06-13T03:59:04.949Z,59.63
2018-06-13T04:01:32.550Z,59.38
2018-06-13T04:04:00.533Z,59.65
2018-06-13T04:06:28.086Z,59.06
2018-06-13T04:08:55.730Z,59.35
2018-06-13T04:11:23.869Z,59.00
2018-06-13T04:13:51.478Z,59.23
2018-06-13T04:16:19.071Z,59.12
2018-06-13T04:18:46.846Z,59.45
2018-06-13T04:21:14.485Z,59.10
2018-06-13T04:23:42.143Z,59.46
2018-06-13T04:26:10.091Z,59.13
2018-06-13T04:28:37.707Z,59.48
2018-06-13T04:31:05.355Z,59.08
2018-06-13T04:33:33.281Z,59.16
2018-06-13T04:36:00.998Z,59.26
2018-06-13T04:38:28.652Z,58.97
2018-06-13T04:40:56.427Z,59.15
2018-06-13T04:43:24.013Z,59.12
2018-06-13T04:45:51.675Z,59.23
2018-06-13T04:48:19.970Z,58.96
2018-06-13T04:50:47.627Z,59.07
2018-06-13T04:53:15.229Z,59.11
2018-06-13T04:55:43.121Z,59.14
2018-06-13T04:58:10.783Z,59.33
2018-06-13T05:00:38.376Z,59.29
2018-06-13T05:03:06.315Z,59.04
2018-06-13T05:05:33.959Z,58.86
2018-06-13T05:08:01.572Z,59.20
2018-06-13T05:10:29.398Z,59.02
2018-06-13T05:12:57.107Z,58.92
2018-06-13T05:15:24.723Z,58.85
2018-06-13T05:17:52.818Z,58.96
2018-06-13T05:20:20.465Z,58.42
2018-06-13T05:22:48.093Z,58.59
2018-06-13T05:25:16.042Z,58.49
2018-06-13T05:27:43.701Z,58.47
2018-06-13T05:30:11.288Z,58.26
2018-06-13T05:32:39.057Z,58.34
2018-06-13T05:35:06.691Z,57.99
2018-06-13T05:37:34.560Z,58.08
2018-06-13T05:40:02.520Z,58.09
2018-06-13T05:42:30.132Z,57.51
2018-06-13T05:44:57.781Z,57.27
2018-06-13T05:47:25.791Z,57.10
2018-06-13T05:49:53.449Z,56.90
2018-06-13T05:52:21.122Z,56.97
2018-06-13T05:54:49.154Z,56.69
2018-06-13T05:57:16.789Z,56.77
2018-06-13T05:59:44.438Z,56.70
2018-06-13T06:02:12.348Z,56.29
2018-06-13T06:04:39.968Z,56.16
2018-06-13T06:07:07.652Z,56.22
2018-06-13T06:09:35.616Z,55.79
2018-06-13T06:12:03.312Z,55.75
2018-06-13T06:14:30.961Z,55.26
2018-06-13T06:16:58.928Z,55.02
2018-06-13T06:19:26.541Z,55.52
2018-06-13T06:21:54.169Z,54.97
2018-06-13T06:24:22.219Z,54.62
2018-06-13T06:26:49.864Z,54.83
2018-06-13T06:29:17.437Z,54.40
2018-06-13T06:31:45.445Z,54.56
2018-06-13T06:34:13.012Z,54.32
2018-06-13T06:36:40.670Z,54.12
2018-06-13T06:39:08.694Z,53.60
2018-06-13T06:41:36.290Z,54.07
2018-06-13T06:44:03.908Z,53.80
2018-06-13T06:46:31.813Z,53.49
2018-06-13T06:48:59.440Z,53.56
2018-06-13T06:51:27.028Z,53.74
2018-06-13T06:53:54.920Z,53.42
2018-06-13T06:56:22.492Z,53.48
2018-06-13T06:58:50.111Z,52.83
2018-06-13T07:01:18.078Z,52.84
2018-06-13T07:03:45.694Z,52.60
2018-06-13T07:06:13.332Z,52.99
2018-06-13T07:08:41.367Z,52.33
2018-06-13T07:11:08.961Z,52.68
2018-06-13T07:13:36.594Z,52.68
2018-06-13T07:16:04.758Z,52.52
2018-06-13T07:18:32.348Z,51.97
2018-06-13T07:20:59.975Z,51.88
2018-06-13T07:23:27.743Z,52.00
2018-06-13T07:25:55.383Z,51.56
2018-06-13T07:28:23.020Z,51.22
2018-06-13T07:30:50.921Z,51.40
2018-06-13T07:33:18.533Z,51.37
2018-06-13T07:35:46.163Z,51.29
2018-06-13T07:38:14.135Z,51.19
2018-06-13T07:40:41.823Z,51.10
2018-06-13T07:43:09.446Z,50.67
2018-06-13T07:45:37.342Z,50.99
2018-06-13T07:48:04.991Z,50.71
2018-06-13T07:50:32.602Z,50.16
2018-06-13T07:53:00.598Z,50.20
2018-06-13T07:55:28.838Z,50.33
2018-06-13T07:57:56.457Z,49.80
2018-06-13T08:00:24.454Z,50.03
2018-06-13T08:02:52.052Z,50.05
2018-06-13T08:05:19.655Z,49.72
2018-06-13T08:07:47.518Z,50.26
2018-06-13T08:10:15.072Z,49.84
2018-06-13T08:12:42.697Z,50.26
2018-06-13T08:15:10.526Z,50.13
2018-06-13T08:17:38.143Z,49.72
2018-06-13T08:20:05.787Z,50.30
2018-06-13T08:22:33.826Z,50.01
2018-06-13T08:25:01.445Z,50.18
2018-06-13T08:27:29.169Z,50.29
2018-06-13T08:29:57.175Z,50.01
2018-06-13T08:32:24.752Z,49.85
2018-06-13T08:34:52.366Z,49.92
2018-06-13T08:37:20.190Z,50.31
2018-06-13T08:39:47.827Z,50.33
2018-06-13T08:42:15.676Z,50.49
2018-06-13T08:44:43.689Z,49.86
2018-06-13T08:47:11.293Z,49.70
2018-06-13T08:49:38.911Z,49.89
2018-06-13T08:52:06.805Z,49.76
2018-06-13T08:54:34.375Z,49.39
2018-06-13T08:57:01.966Z,49.63
2018-06-13T08:59:30.025Z,49.47
2018-06-13T09:01:57.586Z,49.26
2018-06-13T09:04:25.247Z,48.94
2018-06-13T09:06:53.238Z,48.99
2018-06-13T09:09:20.763Z,48.99
2018-06-13T09:11:48.405Z,49.46
2018-06-13T09:14:16.466Z,49.05
2018-06-13T09:16:44.074Z,48.98
2018-06-13T09:19:11.674Z,48.37
2018-06-13T09:21:39.824Z,48.58
2018-06-13T09:24:07.409Z,48.29
2018-06-13T09:26:35.041Z,48.40
2018-06-13T09:29:03.116Z,47.93
2018-06-13T09:31:30.766Z,48.30
2018-06-13T09:33:58.339Z,47.97
2018-06-13T09:36:26.209Z,48.07
2018-06-13T09:38:53.847Z,48.44
2018-06-13T09:41:21.462Z,47.95
2018-06-13T09:43:49.369Z,48.18
2018-06-13T09:46:17.041Z,48.47
2018-06-13T09:48:44.717Z,48.57
2018-06-13T09:51:12.599Z,48.40
2018-06-13T09:53:40.234Z,49.05
2018-06-13T09:56:07.831Z,49.31
2018-06-13T09:58:41.101Z,48.78
2018-06-13T10:01:13.500Z,49.27
2018-06-13T10:03:41.475Z,49.49
2018-06-13T10:06:09.072Z,49.98
2018-06-13T10:08:36.973Z,50.61
2018-06-13T10:11:04.833Z,50.43
2018-06-13T10:13:32.435Z,51.40
2018-06-13T10:16:00.216Z,51.88
2018-06-13T10:18:28.327Z,51.86
2018-06-13T10:20:55.920Z,52.63
2018-06-13T10:23:23.725Z,52.48
2018-06-13T10:25:51.678Z,52.58
2018-06-13T10:28:19.348Z,53.03
2018-06-13T10:30:47.005Z,53.12
2018-06-13T10:33:14.884Z,53.73
2018-06-13T10:36:13.465Z,53.78
2018-06-13T10:38:41.146Z,53.58
2018-06-13T10:41:08.743Z,53.83
2018-06-13T10:43:36.542Z,54.01
2018-06-13T10:46:04.426Z,54.29
2018-06-13T10:48:32.077Z,53.98
2018-06-13T10:50:59.784Z,54.01
2018-06-13T10:53:28.510Z,54.16
2018-06-13T10:55:56.127Z,54.47
2018-06-13T10:58:23.938Z,54.24
2018-06-13T11:00:51.775Z,54.40
2018-06-13T11:03:19.404Z,54.13
2018-06-13T11:05:47.260Z,54.74
2018-06-13T11:08:14.976Z,55.04
2018-06-13T11:10:42.626Z,55.06
2018-06-13T11:13:10.487Z,55.23
2018-06-13T11:15:38.348Z,54.61
2018-06-13T11:18:06.007Z,54.30
2018-06-13T11:20:33.921Z,54.37
2018-06-13T11:23:01.688Z,54.57
2018-06-13T11:25:29.279Z,54.45
2018-06-13T11:27:56.940Z,54.73
2018-06-13T11:30:24.740Z,54.68
2018-06-13T11:32:52.289Z,54.07
2018-06-13T11:35:20.195Z,54.39
2018-06-13T11:37:48.064Z,53.98
2018-06-13T11:40:15.658Z,54.03
2018-06-13T11:42:43.555Z,54.23
2018-06-13T11:45:11.290Z,54.48
2018-06-13T11:47:39.127Z,54.15
2018-06-13T11:50:07.083Z,54.00
2018-06-13T11:52:34.801Z,54.12
2018-06-13T11:55:02.423Z,54.16
2018-06-13T11:57:30.517Z,54.72
2018-06-13T11:59:58.405Z,54.35
2018-06-13T12:02:25.942Z,54.34
2018-06-13T12:04:53.836Z,54.83
2018-06-13T12:07:21.617Z,54.64
2018-06-13T12:09:49.239Z,54.79
2018-06-13T12:12:18.028Z,55.31
2018-06-13T12:14:45.858Z,55.25
2018-06-13T12:17:13.461Z,55.51
2018-06-13T12:19:41.321Z,55.71
2018-06-13T12:22:09.195Z,55.83
2018-06-13T12:24:36.798Z,55.86
2018-06-13T12:27:04.747Z,55.84
2018-06-13T12:29:32.529Z,55.61
2018-06-13T12:32:00.170Z,55.55
2018-06-13T12:34:28.087Z,55.61
2018-06-13T12:36:55.896Z,55.32
2018-06-13T12:39:23.455Z,55.62
2018-06-13T12:41:51.192Z,55.19
2018-06-13T12:44:18.978Z,55.35
2018-06-13T12:46:46.622Z,55.40
2018-06-13T12:49:14.666Z,54.88
2018-06-13T12:51:42.457Z,55.28
2018-06-13T12:54:10.094Z,55.02
2018-06-13T12:56:37.909Z,54.66
2018-06-13T12:59:05.830Z,54.85
2018-06-13T13:01:33.457Z,54.36
2018-06-13T13:04:01.352Z,54.44
2018-06-13T13:06:29.147Z,54.72
2018-06-13T13:08:56.729Z,54.05
2018-06-13T13:11:24.537Z,54.24
2018-06-13T13:13:52.272Z,53.80
2018-06-13T13:16:19.920Z,54.21
2018-06-13T13:18:47.692Z,54.06
2018-06-13T13:21:15.422Z,54.13
2018-06-13T13:23:43.054Z,54.13
2018-06-13T13:26:10.819Z,53.83
2018-06-13T13:28:38.607Z,53.72
2018-06-13T13:31:06.204Z,53.55
2018-06-13T13:33:34.093Z,53.42
2018-06-13T13:36:01.943Z,53.19
2018-06-13T13:38:29.569Z,52.93
2018-06-13T13:40:57.483Z,53.05
2018-06-13T13:43:25.144Z,53.01
2018-06-13T13:45:52.942Z,52.43
2018-06-13T13:48:20.627Z,52.59
2018-06-13T13:50:48.702Z,52.06
2018-06-13T13:53:16.446Z,52.04
2018-06-13T13:55:44.219Z,52.40
2018-06-13T13:58:12.040Z,52.23
2018-06-13T14:00:39.683Z,52.33
2018-06-13T14:03:07.446Z,51.91
2018-06-13T14:05:35.216Z,51.85
2018-06-13T14:08:02.846Z,51.61
2018-06-13T14:10:30.693Z,51.44
2018-06-13T14:12:58.500Z,50.91
2018-06-13T14:15:26.196Z,51.35
2018-06-13T14:17:53.976Z,51.35
2018-06-13T14:20:21.754Z,51.69
2018-06-13T14:22:49.356Z,51.59
2018-06-13T14:25:17.058Z,51.05
2018-06-13T14:27:45.424Z,51.55
2018-06-13T14:30:13.055Z,50.74
2018-06-13T14:32:40.316Z,51.22
2018-06-13T14:35:08.095Z,51.31
2018-06-13T14:37:35.704Z,51.23
2018-06-13T14:40:03.621Z,51.22
2018-06-13T14:42:31.366Z,51.52
2018-06-13T14:44:58.957Z,52.03
2018-06-13T14:47:26.811Z,51.85
2018-06-13T14:49:54.794Z,51.82
2018-06-13T14:52:22.520Z,51.96
2018-06-13T14:54:50.200Z,51.49
2018-06-13T14:57:18.072Z,51.69
2018-06-13T14:59:45.667Z,51.78
2018-06-13T15:02:13.503Z,51.87
2018-06-13T15:04:41.199Z,51.49
2018-06-13T15:07:08.880Z,50.86
2018-06-13T15:09:36.748Z,50.45
2018-06-13T15:12:04.666Z,50.73
2018-06-13T15:14:32.315Z,50.40
2018-06-13T15:16:59.502Z,50.12
2018-06-13T15:19:27.253Z,49.69
2018-06-13T15:21:54.898Z,49.96
2018-06-13T15:24:22.724Z,49.70
2018-06-13T15:26:50.439Z,49.97
2018-06-13T15:29:18.114Z,49.94
2018-06-13T15:31:45.912Z,49.70
2018-06-13T15:34:13.841Z,49.37
2018-06-13T15:36:41.485Z,49.73
2018-06-13T15:39:11.508Z,49.76
2018-06-13T15:41:39.270Z,49.62
2018-06-13T15:44:07.005Z,49.36
2018-06-13T15:46:34.663Z,49.15
2018-06-13T15:49:02.646Z,48.94
2018-06-13T15:51:30.259Z,49.45
2018-06-13T15:53:58.227Z,49.07
2018-06-13T15:56:26.008Z,49.08
2018-06-13T15:58:53.839Z,49.50
2018-06-13T16:01:21.650Z,49.40
2018-06-13T16:03:49.509Z,48.84
2018-06-13T16:06:17.177Z,49.10
2018-06-13T16:08:44.949Z,48.85
2018-06-13T16:11:12.774Z,48.42
2018-06-13T16:13:40.398Z,48.02
2018-06-13T16:16:08.291Z,47.89
2018-06-13T16:18:36.186Z,47.86
2018-06-13T16:21:03.924Z,47.60
2018-06-13T16:23:31.752Z,47.31
2018-06-13T16:25:59.562Z,47.46
2018-06-13T16:28:27.179Z,47.47
2018-06-13T16:30:55.040Z,47.87
2018-06-13T16:33:23.188Z,47.89
2018-06-13T16:35:50.892Z,47.81
2018-06-13T16:38:18.670Z,47.58
2018-06-13T16:40:46.476Z,47.29
2018-06-13T16:43:14.058Z,47.40
2018-06-13T16:45:41.826Z,47.14
2018-06-13T16:48:09.687Z,46.92
2018-06-13T16:50:45.199Z,47.45
2018-06-13T16:55:26.406Z,47.37
2018-06-13T16:57:54.250Z,47.02
2018-06-13T17:00:22.520Z,47.21
2018-06-13T17:02:50.717Z,46.93
2018-06-13T17:05:18.586Z,46.97
2018-06-13T17:07:46.768Z,47.24
2018-06-13T17:10:14.442Z,47.13
2018-06-13T17:12:42.384Z,47.18
2018-06-13T17:15:10.168Z,46.88
2018-06-13T17:17:37.804Z,46.91
2018-06-13T17:20:05.629Z,46.78
2018-06-13T17:22:33.412Z,47.09
2018-06-13T17:25:01.053Z,46.90
2018-06-13T17:27:28.935Z,46.68
2018-06-13T17:29:56.618Z,46.80
2018-06-13T17:32:25.000Z,46.73
2018-06-13T17:34:52.859Z,47.03
2018-06-13T17:37:20.811Z,47.34
2018-06-13T17:39:48.412Z,47.45
2018-06-13T17:42:16.261Z,47.47
2018-06-13T17:44:44.477Z,47.29
2018-06-13T17:47:12.250Z,47.44
2018-06-13T17:49:39.935Z,47.25
2018-06-13T17:52:07.950Z,47.29
2018-06-13T17:54:35.538Z,47.43
2018-06-13T17:57:03.445Z,47.34
2018-06-13T17:59:31.284Z,47.88
2018-06-13T18:01:58.899Z,47.80
2018-06-13T18:04:26.733Z,48.07
2018-06-13T18:06:54.415Z,47.94
2018-06-13T18:09:22.012Z,47.76
2018-06-13T18:11:49.696Z,47.70
2018-06-13T18:14:17.497Z,47.77
2018-06-13T18:16:45.169Z,47.84
2018-06-13T18:19:12.846Z,47.99
2018-06-13T18:21:40.682Z,48.50
2018-06-13T18:24:08.310Z,48.26
2018-06-13T18:26:36.069Z,48.49
2018-06-13T18:29:04.004Z,48.59
2018-06-13T18:31:31.624Z,48.54
2018-06-13T18:33:59.328Z,48.76
2018-06-13T18:36:27.067Z,48.70
2018-06-13T18:38:54.649Z,48.46
2018-06-13T18:41:22.413Z,48.49
2018-06-13T18:43:50.281Z,48.37
2018-06-13T18:46:17.896Z,48.38
2018-06-13T18:48:45.556Z,48.71
2018-06-13T18:51:13.305Z,48.81
2018-06-13T18:53:40.943Z,48.66
2018-06-13T18:56:08.543Z,48.66
2018-06-13T18:58:36.454Z,48.88
2018-06-13T19:01:04.098Z,48.99
2018-06-13T19:03:31.708Z,48.86
2018-06-13T19:05:59.480Z,49.53
2018-06-13T19:08:27.111Z,49.45
2018-06-13T19:11:09.931Z,49.57
2018-06-13T19:13:37.520Z,49.48
2018-06-13T19:16:05.138Z,49.73
2018-06-13T19:18:33.098Z,49.28
2018-06-13T19:21:00.715Z,49.40
2018-06-13T19:23:28.373Z,49.74
2018-06-13T19:25:56.321Z,49.75
2018-06-13T19:28:23.962Z,50.20
2018-06-13T19:30:51.579Z,49.79
2018-06-13T19:33:19.604Z,49.90
2018-06-13T19:35:47.184Z,50.52
2018-06-13T19:38:14.787Z,50.23
2018-06-13T19:40:42.657Z,50.12
2018-06-13T19:43:15.985Z,50.59
2018-06-13T19:45:44.002Z,50.24
2018-06-13T19:48:17.190Z,50.44
2018-06-13T19:50:45.052Z,50.71
2018-06-13T19:53:18.205Z,51.01
2018-06-13T19:55:51.560Z,51.12
2018-06-13T19:58:19.194Z,51.18
2018-06-13T20:00:47.074Z,51.18
2018-06-13T20:03:20.189Z,51.11
2018-06-13T20:05:48.013Z,51.47
2018-06-13T20:08:15.635Z,51.48
2018-06-13T20:10:46.081Z,51.47
2018-06-13T20:13:19.499Z,51.70
2018-06-13T20:15:52.767Z,51.82
2018-06-13T20:18:26.165Z,52.26
2018-06-13T20:20:53.885Z,52.02
2018-06-13T20:23:21.648Z,51.93
2018-06-13T20:25:54.887Z,52.36
2018-06-13T20:28:28.083Z,52.31
2018-06-13T20:31:01.267Z,52.45
2018-06-13T20:33:29.121Z,52.77
2018-06-13T20:35:56.756Z,52.76
2018-06-13T20:38:24.457Z,53.00
2018-06-13T20:40:52.166Z,53.28
2018-06-13T20:43:19.908Z,52.85
2018-06-13T20:45:47.578Z,53.15
2018-06-13T20:48:15.456Z,53.20
2018-06-13T20:50:43.072Z,53.45
2018-06-13T20:53:10.702Z,53.17
2018-06-13T20:55:38.474Z,53.68
2018-06-13T20:58:06.080Z,53.73
2018-06-13T21:00:33.794Z,53.82
2018-06-13T21:03:01.875Z,54.13
2018-06-13T21:05:29.475Z,53.95
2018-06-13T21:07:57.147Z,53.92
2018-06-13T21:10:25.034Z,54.05
2018-06-13T21:12:52.665Z,54.22
2018-06-13T21:15:20.338Z,54.55
2018-06-13T21:17:48.272Z,54.28
2018-06-13T21:20:15.951Z,54.53
2018-06-13T21:22:43.661Z,54.23
2018-06-13T21:25:11.508Z,54.87
2018-06-13T21:27:39.120Z,54.22
2018-06-13T21:30:06.796Z,54.83
2018-06-13T21:32:34.698Z,54.75
2018-06-13T21:35:02.500Z,54.87
2018-06-13T21:37:30.163Z,55.07
2018-06-13T21:39:58.065Z,54.76
2018-06-13T21:42:25.707Z,55.15
2018-06-13T21:44:53.515Z,55.29
2018-06-13T21:47:21.331Z,55.21
2018-06-13T21:49:48.898Z,55.15
2018-06-13T21:52:16.530Z,55.34
2018-06-13T21:54:44.480Z,55.39
2018-06-13T21:57:12.094Z,55.62
2018-06-13T21:59:39.769Z,55.66
2018-06-13T22:02:07.609Z,55.93
2018-06-13T22:04:35.463Z,55.65
2018-06-13T22:07:03.120Z,55.85
2018-06-13T22:09:31.053Z,55.51
2018-06-13T22:11:58.662Z,55.73
2018-06-13T22:14:26.472Z,56.10
2018-06-13T22:16:54.585Z,56.21
2018-06-13T22:19:22.936Z,55.99
2018-06-13T22:21:50.621Z,56.05
2018-06-13T22:24:18.688Z,56.08
2018-06-13T22:26:46.303Z,55.86
2018-06-13T22:29:29.171Z,56.28
2018-06-13T22:31:56.783Z,56.33
2018-06-13T22:34:24.501Z,55.94
2018-06-13T22:36:52.416Z,56.17
2018-06-13T22:39:19.995Z,56.41
2018-06-13T22:41:47.659Z,56.41
2018-06-13T22:44:15.507Z,56.08
2018-06-13T22:46:43.262Z,56.33
2018-06-13T22:49:10.968Z,56.40
2018-06-13T22:51:38.777Z,56.51
2018-06-13T22:54:06.416Z,56.34
2018-06-13T22:56:34.052Z,56.69
2018-06-13T22:59:02.176Z,56.92
2018-06-13T23:01:29.856Z,56.95
2018-06-13T23:03:57.480Z,56.46
2018-06-13T23:06:25.781Z,57.08
2018-06-13T23:08:53.464Z,56.48
2018-06-13T23:11:21.061Z,56.95
2018-06-13T23:13:49.828Z,56.90
2018-06-13T23:16:17.507Z,56.86
2018-06-13T23:18:45.135Z,57.01
2018-06-13T23:21:13.068Z,57.30
2018-06-13T23:23:40.782Z,56.96
2018-06-13T23:26:08.424Z,57.17
2018-06-13T23:28:36.612Z,56.91
2018-06-13T23:31:04.244Z,57.20
2018-06-13T23:33:31.843Z,56.95
2018-06-13T23:35:59.815Z,56.80
2018-06-13T23:38:27.642Z,57.30
2018-06-13T23:40:55.217Z,57.27
2018-06-13T23:43:24.597Z,57.32
2018-06-13T23:45:52.207Z,57.31
2018-06-13T23:48:19.829Z,57.51
2018-06-13T23:50:47.843Z,57.39
2018-06-13T23:53:15.449Z,57.43
2018-06-13T23:55:43.187Z,57.37
2018-06-13T23:58:11.159Z,57.75
